METAR Formatted Surface Weather Observation
Issued by NWS

Home | Current Version | Previous Version | Text Only | Print | Product List | Glossary On
Versions: 1 2 3 4
SAHW31 PHFO 250154
METAR PHJR 250153Z 04007KT 10SM OVC045 27/18 A3004 RMK AO2 SLP177
T02720183 is the U.S. government's official web portal to all federal, state and local government web resources and services.